Tiempo atmosférico en la estación meteorológica de Arganda Del Rey, Madrid (533 m.)

Fecha
DESCASC
Temp. máxima en grados centígrados (hora)
DESCASC
Temp. mínima en grados centígrados (hora)
DESCASC
Temp. media en grados centígrados
DESCASC
Racha de viento máxima en m/sg (hora)
DESCASC
Velocidad máxima media en intervalos de 10 minutos(hora)
DESCASC
Precipitaciones diarias en mm
DESCASC
Precipitaciones de 00:00 a 06:00 en mm
DESCASC
Precipitaciones de 06:00 a 12:00 en mm
DESCASC
Precipitaciones de 12:00 a 18:00 en mm
DESCASC
Precipitaciones de 18:00 a 24:00 en mm
DESCASC
17-09-2017 25.6 (18:20) 5.9 (06:30) 15.8 8.89 (14:30) 6.11 (17:10) 0 0 0 0 0
16-09-2017 23.4 (17:30) 10.6 (07:50) 17 7.5 (16:00) 4.72 (16:00) 0 0 0 0 0
15-09-2017 23.7 (16:20) 14.3 (07:10) 19 12.78 (12:10) 6.94 (10:40) 0 0 0 0 0
14-09-2017 31.5 (16:20) 11.9 (00:00) 21.7 9.44 (16:30) 6.39 (16:10) 0 0 0 0 0
13-09-2017 32.4 (17:40) 12.2 (00:00) 22.3 7.22 (18:10) 4.17 (15:50) 0 0 0 0 0
12-09-2017 28.6 (19:10) 14.7 (00:00) 21.7 8.89 (01:50) 4.17 (02:10) 0 0 0 0 0
11-09-2017 32 (18:00) 11 (00:00) 21.5 13.06 (18:00) 7.22 (12:40) 0 0 0 0 0
10-09-2017 26.1 (18:10) 8.8 (00:00) 17.5 7.5 (17:50) 4.44 (00:30) 0 0 0 0 0
09-09-2017 26.5 (17:10) 13.1 (00:00) 19.8 12.5 (16:40) 6.67 (18:50) 0 0 0 0 0
08-09-2017 32.3 (17:40) 13.1 (00:00) 22.7 8.33 (18:50) 5.56 (18:30) 0 0 0 0 0
07-09-2017 32.5 (17:40) 18.1 (00:00) 25.3 7.5 (21:10) 4.72 (21:10) 0 0 0 0 0
06-09-2017 34.4 (16:40) 18.5 (00:00) 26.5 8.89 (16:30) 4.72 (21:50) 0 0 0 0 0
05-09-2017 33.4 (18:10) 17.2 (00:00) 25.3 5.28 (14:10) 3.06 (17:10) 0 0 0 0 0
04-09-2017 32.1 (17:30) 14.7 (00:00) 23.4 8.89 (13:00) 3.89 (17:00) 0 0 0 0 0
03-09-2017 32.7 (18:00) 12.8 (00:00) 22.8 10 (17:10) 5.56 (20:10) 0 0 0 0 0
02-09-2017 29.7 (19:00) 13.6 (00:00) 21.7 10.83 (00:10) 6.39 (00:10) 0 0 0 0 0
01-09-2017 30.7 (18:10) 17.8 (00:00) 24.3 10.56 (23:59) 6.67 (21:50) 0 0 0 0 0
31-08-2017 30.4 (18:50) 16.7 (00:00) 23.6 6.67 (22:20) 4.17 (22:20) 0 0 0 0 0
30-08-2017 27.6 (17:40) 16.6 (00:00) 22.1 8.33 (19:10) 5.83 (18:40) 0 0 0 0 0
29-08-2017 26.2 (16:30) 15.4 (00:00) 20.8 7.5 (17:40) 5.83 (17:20) 4 3.8 0.2 0 0
28-08-2017 25 (10:50) 17.8 (00:00) 21.4 15 (14:40) 7.78 (14:50) 2 0 0.4 1.4 0.2
27-08-2017 28.6 (00:20) 22.6 (00:00) 25.6 14.17 (12:50) 8.61 (00:20) 0.2 0 0 0.2 0
26-08-2017 32.5 (16:20) 16.3 (00:00) 24.4 13.61 (23:00) 7.5 (23:59) 0 0 0 0 0
25-08-2017 35.9 (18:30) 17 (00:00) 26.5 9.44 (19:10) 6.67 (19:20) 0 0 0 0 0
24-08-2017 37.2 (17:00) 17.2 (00:00) 27.2 10.83 (17:30) 7.5 (18:30) 0 0 0 0 0
23-08-2017 37.6 (16:50) 21 (00:00) 29.3 9.17 (17:00) 5 (16:50) 0 0 0 0 0
22-08-2017 37.9 (17:20) 22.3 (00:00) 30.1 9.17 (02:40) 4.17 (16:50) 0 0 0 0 0

Gráficas

Temp. máximas Temp. mínimas Temp. medias Precipitaciones Rachas de viento máximas Velocidades máximas media en intervalos de 10 minutos

Datos horarios

Fecha y hora oficial Temperatura (ºC) Velocidad del viento (km/h) Dirección del viento Racha (km/h) Dirección de racha Precipitación (mm) Presión (hPa) Tendencia (hPa) Humedad (%)
2017-09-20 23:00:00 15.9 4 Nordeste 5 Nordeste 0 -- -- 42
2017-09-20 22:00:00 18.3 0 Calma 6 Nordeste 0 -- -- 39
2017-09-20 21:00:00 21.9 2 Sudeste 6 Sur 0 -- -- 33
2017-09-20 20:00:00 27 4 Sudoeste 11 Sudoeste 0 -- -- 26
2017-09-20 19:00:00 29 6 Sur 15 Sudoeste 0 -- -- 22
2017-09-20 18:00:00 29.3 11 Sudoeste 18 Oeste 0 -- -- 23
2017-09-20 17:00:00 29.2 6 Oeste 35 Oeste 0 -- -- 25
2017-09-20 16:00:00 28.7 8 Noroeste 16 Sudoeste 0 -- -- 25
2017-09-20 15:00:00 27.1 6 Sudoeste 18 Sudoeste 0 -- -- 28
2017-09-20 14:00:00 25.9 7 Sudoeste 13 Sudoeste 0 -- -- 26
2017-09-20 13:00:00 24 3 Norte 10 Noroeste 0 -- -- 35
2017-09-20 12:00:00 21.3 3 Este 8 Oeste 0 -- -- 35
2017-09-20 11:00:00 18.3 4 Nordeste 13 Este 0 -- -- 36
2017-09-20 10:00:00 15.1 3 Nordeste 8 Este 0 -- -- 43
2017-09-20 09:00:00 11.4 4 Este 7 Este 0 -- -- 53
2017-09-20 08:00:00 8.6 3 Nordeste 6 Nordeste 0 -- -- 61
2017-09-20 07:00:00 9.1 2 Sudeste 5 Este 0 -- -- 56
2017-09-20 06:00:00 10.7 0 Calma 8 Noroeste 0 -- -- 51
2017-09-20 05:00:00 12.1 3 Nordeste 12 Noroeste 0 -- -- 46
2017-09-20 04:00:00 11.6 0 Calma 8 Noroeste 0 -- -- 47
2017-09-20 03:00:00 13.2 3 Norte 7 Nordeste 0 -- -- 42
2017-09-20 02:00:00 13.2 3 Este 6 Nordeste 0 -- -- 47
2017-09-20 01:00:00 14.3 2 Este 9 Nordeste 0 -- -- 45
2017-09-20 00:00:00 15.4 6 Nordeste 8 Nordeste 0 -- -- 47
2017-09-19 23:00:00 17.1 5 Este 10 Nordeste 0 -- -- 45
2017-09-19 22:00:00 18.1 2 Nordeste 4 Nordeste 0 -- -- 45
2017-09-19 21:00:00 21.5 2 Sudoeste 9 Sudeste 0 -- -- 36
2017-09-19 20:00:00 25.6 6 Sudeste 8 Sudeste 0 -- -- 30
2017-09-19 19:00:00 27.5 3 Este 8 Sur 0 -- -- 27
2017-09-19 18:00:00 27.5 7 Oeste 14 Oeste 0 -- -- 28
2017-09-19 17:00:00 27.5 8 Norte 15 Nordeste 0 -- -- 28
2017-09-19 16:00:00 26.7 7 Noroeste 24 Oeste 0 -- -- 28
2017-09-19 15:00:00 25.3 11 Oeste 21 Oeste 0 -- -- 32
2017-09-19 14:00:00 23.9 7 Nordeste 14 Oeste 0 -- -- 35
2017-09-19 13:00:00 23 8 Sudoeste 14 Sudoeste 0 -- -- 38
2017-09-19 12:00:00 20.5 5 Oeste 9 Sudoeste 0 -- -- 44
2017-09-19 11:00:00 17.9 2 Este 10 Este 0 -- -- 50
2017-09-19 10:00:00 13.9 0 Calma 4 Sudoeste 0 -- -- 60
2017-09-19 09:00:00 9.2 2 Sur 5 Sur 0 -- -- 74
2017-09-19 08:00:00 7.5 2 Oeste 4 Sur 0 -- -- 71
2017-09-19 07:00:00 8.3 2 Sur 6 Nordeste 0 -- -- 70
2017-09-19 06:00:00 8.4 2 Sur 10 Nordeste 0 -- -- 65
2017-09-19 05:00:00 8.8 3 Nordeste 5 Nordeste 0 -- -- 65
2017-09-19 04:00:00 9.7 2 Sudeste 5 Nordeste 0 -- -- 66
2017-09-19 03:00:00 10.6 4 Sur 8 Nordeste 0 -- -- 59
2017-09-19 02:00:00 11.1 3 Oeste 5 Nordeste 0 -- -- 57
2017-09-19 01:00:00 13.1 4 Nordeste 9 Nordeste 0 -- -- 51
2017-09-19 00:00:00 13.2 4 Nordeste 9 Nordeste 0 -- -- 53
2017-09-18 23:00:00 15.1 3 Norte 9 Sudeste 0 -- -- 48
2017-09-18 22:00:00 18.8 0 Calma 13 Noroeste 0 -- -- 42
2017-09-18 21:00:00 20.6 8 Norte 26 Norte 0 -- -- 35
2017-09-18 20:00:00 23 10 Noroeste 32 Noroeste 0 -- -- 32
2017-09-18 19:00:00 24.4 15 Noroeste 28 Noroeste 0 -- -- 30
2017-09-18 18:00:00 25.6 13 Noroeste 32 Noroeste 0 -- -- 29
2017-09-18 17:00:00 25 17 Noroeste 36 Noroeste 0 -- -- 31
2017-09-18 16:00:00 24.6 18 Noroeste 35 Noroeste 0 -- -- 33
2017-09-18 15:00:00 24.2 19 Oeste 39 Noroeste 0 -- -- 33
2017-09-18 14:00:00 23 21 Oeste 35 Noroeste 0 -- -- 39
2017-09-18 13:00:00 22.6 16 Oeste 26 Oeste 0 -- -- 41
2017-09-18 12:00:00 21 10 Oeste 22 Noroeste 0 -- -- 42
2017-09-18 11:00:00 18.1 8 Sudoeste 14 Oeste 0 -- -- 42
2017-09-18 10:00:00 14 6 Sudoeste 10 Sudoeste 0 -- -- 47
2017-09-18 09:00:00 10.6 3 Nordeste 9 Sur 0 -- -- 56
2017-09-18 08:00:00 7.8 4 Nordeste 7 Nordeste 0 -- -- 66
2017-09-18 07:00:00 7.6 0 Calma 5 Este 0 -- -- 58
2017-09-18 06:00:00 8.3 2 Este 5 Oeste 0 -- -- 62
2017-09-18 05:00:00 8.3 3 Oeste 4 Oeste 0 -- -- 53
2017-09-18 04:00:00 8.8 0 Calma 5 Norte 0 -- -- 51
2017-09-18 03:00:00 10 0 Calma 5 Nordeste 0 -- -- 47
2017-09-18 02:00:00 11.5 0 Calma 3 Noroeste 0 -- -- 45
2017-09-18 01:00:00 12.9 3 Oeste 6 Oeste 0 -- -- 44
2017-09-18 00:00:00 13.9 4 Oeste 6 Oeste 0 -- -- 40
2017-09-17 23:00:00 16 3 Sudoeste 9 Sur 0 -- -- 31
2017-09-17 22:00:00 17 4 Sur 10 Sudoeste 0 -- -- 32
2017-09-17 21:00:00 19.8 4 Sur 18 Sudoeste 0 -- -- 26
2017-09-17 20:00:00 23.2 12 Oeste 28 Oeste 0 -- -- 21
2017-09-17 19:00:00 24.9 22 Oeste 31 Oeste 0 -- -- 18
2017-09-17 18:00:00 25.4 18 Sudoeste 32 Sudoeste 0 -- -- 19
2017-09-17 17:00:00 25 19 Sudoeste 31 Oeste 0 -- -- 20
2017-09-17 16:00:00 24.2 13 Oeste 26 Sudoeste 0 -- -- 23
2017-09-17 15:00:00 24.2 9 Sudoeste 32 Sur 0 -- -- 21
2017-09-17 14:00:00 22.8 9 Sudoeste 20 Sudoeste 0 -- -- 25
2017-09-17 13:00:00 21.1 6 Sudoeste 15 Sur 0 -- -- 30
2017-09-17 12:00:00 19.2 5 Sur 12 Sudoeste 0 -- -- 32
2017-09-17 11:00:00 16.2 4 Este 11 Este 0 -- -- 36
2017-09-17 10:00:00 12.5 9 Este 13 Nordeste 0 -- -- 46
2017-09-17 09:00:00 9.1 4 Nordeste 9 Este 0 -- -- 55
2017-09-17 08:00:00 6.7 5 Este 9 Nordeste 0 -- -- 60
2017-09-17 07:00:00 6.8 4 Este 8 Este 0 -- -- 62
2017-09-17 06:00:00 6.2 0 Calma 4 Nordeste 0 -- -- 62
2017-09-17 05:00:00 7.1 0 Calma 6 Este 0 -- -- 57
2017-09-17 04:00:00 8.2 4 Nordeste 6 Nordeste 0 -- -- 55
2017-09-17 03:00:00 8.7 0 Calma 6 Nordeste 0 -- -- 51
2017-09-17 02:00:00 9.9 4 Nordeste 6 Nordeste 0 -- -- 49
2017-09-17 01:00:00 11.3 4 Nordeste 8 Este 0 -- -- 46
2017-09-17 00:00:00 12.1 5 Este 8 Sudeste 0 -- -- 42
2017-09-16 23:00:00 14.8 3 Nordeste 12 Nordeste 0 -- -- 37
2017-09-16 22:00:00 16.4 6 Nordeste 15 Norte 0 -- -- 33
2017-09-16 21:00:00 18.1 8 Norte 17 Noroeste 0 -- -- 28
2017-09-16 20:00:00 20.7 7 Noroeste 24 Oeste 0 -- -- 27
2017-09-16 19:00:00 21.8 12 Noroeste 27 Oeste 0 -- -- 26
2017-09-16 18:00:00 22.7 13 Noroeste 26 Noroeste 0 -- -- 25
2017-09-16 17:00:00 22.8 9 Norte 24 Oeste 0 -- -- 26
2017-09-16 16:00:00 22.2 17 Oeste 27 Oeste 0 -- -- 29
2017-09-16 15:00:00 21.8 9 Noroeste 22 Oeste 0 -- -- 29
2017-09-16 14:00:00 20.5 8 Noroeste 18 Oeste 0 -- -- 30
2017-09-16 13:00:00 19.7 7 Norte 20 Noroeste 0 -- -- 33
2017-09-16 12:00:00 17.3 5 Norte 13 Norte 0 -- -- 41
2017-09-16 11:00:00 14.4 5 Nordeste 17 Nordeste 0 -- -- 50
2017-09-16 10:00:00 11.7 9 Norte 18 Norte 0 -- -- 57
2017-09-16 09:00:00 11 9 Norte 16 Norte 0 -- -- 59
2017-09-16 08:00:00 10.6 9 Norte 19 Norte 0 -- -- 60
2017-09-16 07:00:00 10.9 6 Norte 18 Nordeste 0 -- -- 59
2017-09-16 06:00:00 11.6 11 Nordeste 21 Norte 0 -- -- 58
2017-09-16 05:00:00 12.4 12 Norte 21 Nordeste 0 -- -- 55
2017-09-16 04:00:00 12.6 9 Nordeste 16 Norte 0 -- -- 54
2017-09-16 03:00:00 13.4 5 Nordeste 12 Norte 0 -- -- 54
2017-09-16 02:00:00 14 8 Nordeste 15 Nordeste 0 -- -- 55
2017-09-16 01:00:00 14.5 10 Nordeste 21 Nordeste 0 -- -- 52
2017-09-16 00:00:00 15.3 10 Nordeste 20 Nordeste 0 -- -- 49
2017-09-15 23:00:00 16.4 12 Nordeste 30 Este 0 -- -- 45
2017-09-15 22:00:00 18.3 18 Este 37 Norte 0 -- -- 39
2017-09-15 21:00:00 19.5 18 Norte 31 Norte 0 -- -- 31
2017-09-15 20:00:00 20.7 11 Norte 23 Norte 0 -- -- 29
2017-09-15 19:00:00 22.1 9 Norte 19 Norte 0 -- -- 30
2017-09-15 18:00:00 22.5 13 Nordeste 29 Nordeste 0 -- -- 31
2017-09-15 17:00:00 23.3 12 Norte 30 Norte 0 -- -- 31
2017-09-15 16:00:00 22.7 15 Nordeste 31 Nordeste 0 -- -- 32
2017-09-15 15:00:00 21.8 18 Nordeste 34 Norte 0 -- -- 35
2017-09-15 14:00:00 21.1 19 Nordeste 39 Norte 0 -- -- 38
2017-09-15 13:00:00 20.9 19 Nordeste 46 Norte 0 -- -- 40
2017-09-15 12:00:00 19.6 22 Nordeste 41 Nordeste 0 -- -- 43
2017-09-15 11:00:00 17.5 19 Nordeste 42 Nordeste 0 -- -- 45
2017-09-15 10:00:00 16 21 Norte 35 Norte 0 -- -- 48
2017-09-15 09:00:00 14.6 17 Norte 33 Norte 0 -- -- 54
2017-09-15 08:00:00 14.3 9 Nordeste 27 Norte 0 -- -- 60
2017-09-15 07:00:00 14.4 17 Norte 29 Norte 0 -- -- 60
2017-09-15 06:00:00 14.6 9 Norte 24 Nordeste 0 -- -- 60
2017-09-15 05:00:00 15.1 12 Norte 22 Norte 0 -- -- 58
2017-09-15 04:00:00 15.6 13 Nordeste 29 Nordeste 0 -- -- 57
2017-09-15 03:00:00 16.1 11 Norte 25 Norte 0 -- -- 56
2017-09-15 02:00:00 17.1 13 Nordeste 27 Norte 0 -- -- 54
2017-09-15 01:00:00 18.3 13 Norte 23 Nordeste 0 -- -- 52
2017-09-15 00:00:00 20.9 7 Norte 20 Norte 0 -- -- 48
2017-09-14 23:00:00 22.4 8 Nordeste 17 Nordeste 0 -- -- 44
2017-09-14 22:00:00 23 3 Nordeste 7 Nordeste 0 -- -- 37
2017-09-14 21:00:00 25.4 3 Nordeste 12 Oeste 0 -- -- 35
2017-09-14 20:00:00 28.7 6 Noroeste 24 Noroeste 0 -- -- 30
2017-09-14 19:00:00 30 13 Oeste 28 Oeste 0 -- -- 27
2017-09-14 18:00:00 30.3 16 Oeste 27 Oeste 0 -- -- 25
2017-09-14 17:00:00 29.9 17 Oeste 34 Sudoeste 0 -- -- 24
2017-09-14 16:00:00 31 15 Sudoeste 32 Sudoeste 0 -- -- 26
2017-09-14 15:00:00 30.8 12 Sudoeste 28 Oeste 0 -- -- 25
2017-09-14 14:00:00 29.3 15 Oeste 33 Oeste 0 -- -- 30
2017-09-14 13:00:00 28.3 6 Sur 15 Sudoeste 0 -- -- 34
2017-09-14 12:00:00 25.2 9 Sudoeste 17 Sudoeste 0 -- -- 37
2017-09-14 11:00:00 22.1 6 Sudoeste 11 Sudoeste 0 -- -- 42
2017-09-14 10:00:00 18.9 2 Sudoeste 5 Este 0 -- -- 47
2017-09-14 09:00:00 15.2 5 Nordeste 9 Nordeste 0 -- -- 58
2017-09-14 08:00:00 12 3 Nordeste 4 Nordeste 0 -- -- 70
2017-09-14 07:00:00 12.1 0 Calma 6 Nordeste 0 -- -- 69
2017-09-14 06:00:00 12.8 3 Nordeste 4 Oeste 0 -- -- 68
2017-09-14 05:00:00 13.7 2 Norte 4 Norte 0 -- -- 62
2017-09-14 04:00:00 14.3 3 Noroeste 5 Oeste 0 -- -- 67
2017-09-14 03:00:00 15.8 0 Calma 6 Nordeste 0 -- -- 59
2017-09-14 02:00:00 16.4 2 Noroeste 5 Sur 0 -- -- 58
2017-09-14 01:00:00 17 2 Sudoeste 5 Oeste 0 -- -- 55
2017-09-14 00:00:00 18.7 2 Sur 3 Sur 0 -- -- 48
2017-09-13 23:00:00 20.5 0 Calma 4 Nordeste 0 -- -- 43
2017-09-13 22:00:00 23.1 0 Calma 4 Nordeste 0 -- -- 38
2017-09-13 21:00:00 26.3 0 Calma 5 Noroeste 0 -- -- 33
2017-09-13 20:00:00 30.8 4 Oeste 19 Sudoeste 0 -- -- 26
2017-09-13 19:00:00 31.8 8 Oeste 26 Oeste 0 -- -- 24
2017-09-13 18:00:00 31.8 14 Oeste 24 Sudoeste 0 -- -- 24
2017-09-13 17:00:00 31.8 11 Sudoeste 24 Sudoeste 0 -- -- 25
2017-09-13 16:00:00 31.5 11 Sur 25 Sudoeste 0 -- -- 25
2017-09-13 15:00:00 29.9 14 Oeste 21 Oeste 0 -- -- 27
2017-09-13 14:00:00 28.9 8 Oeste 17 Oeste 0 -- -- 28
2017-09-13 13:00:00 27.3 5 Norte 12 Sudoeste 0 -- -- 32
2017-09-13 12:00:00 24.6 4 Norte 10 Nordeste 0 -- -- 38
2017-09-13 11:00:00 22.3 4 Norte 9 Nordeste 0 -- -- 42
2017-09-13 10:00:00 18.7 0 Calma 4 Sudeste 0 -- -- 49
2017-09-13 09:00:00 15.5 3 Este 11 Este 0 -- -- 59
2017-09-13 08:00:00 12.4 4 Nordeste 6 Nordeste 0 -- -- 66
2017-09-13 07:00:00 13 3 Este 8 Este 0 -- -- 64
2017-09-13 06:00:00 14.2 4 Este 8 Nordeste 0 -- -- 61
2017-09-13 05:00:00 13.1 2 Sudeste 5 Sur 0 -- -- 62
2017-09-13 04:00:00 13.4 3 Sur 5 Sur 0 -- -- 64
2017-09-13 03:00:00 14.5 0 Calma 8 Nordeste 0 -- -- 58
2017-09-13 02:00:00 16.4 6 Nordeste 9 Nordeste 0 -- -- 53
2017-09-13 01:00:00 16.2 0 Calma 5 Norte 0 -- -- 52
2017-09-13 00:00:00 17.4 0 Calma 4 Sur 0 -- -- 52
2017-09-12 23:00:00 19.4 0 Calma 7 Este 0 -- -- 46
2017-09-12 22:00:00 21.4 5 Nordeste 8 Nordeste 0 -- -- 40
2017-09-12 21:00:00 24.4 0 Calma 8 Nordeste 0 -- -- 37
2017-09-12 20:00:00 27.3 5 Nordeste 9 Nordeste 0 -- -- 29
2017-09-12 19:00:00 28.5 4 Sudeste 14 Nordeste 0 -- -- 28
2017-09-12 18:00:00 28.4 5 Oeste 15 Sudoeste 0 -- -- 28
2017-09-12 17:00:00 27.8 5 Oeste 24 Oeste 0 -- -- 28
2017-09-12 16:00:00 27.7 12 Oeste 22 Oeste 0 -- -- 29
2017-09-12 15:00:00 26.8 8 Norte 17 Norte 0 -- -- 29
2017-09-12 14:00:00 25.8 8 Norte 18 Norte 0 -- -- 34
2017-09-12 13:00:00 24.8 8 Nordeste 17 Norte 0 -- -- 39
2017-09-12 12:00:00 22.8 7 Nordeste 19 Nordeste 0 -- -- 42
2017-09-12 11:00:00 21.6 11 Nordeste 20 Nordeste 0 -- -- 46
2017-09-12 10:00:00 20.5 3 Nordeste 10 Sudeste 0 -- -- 49
2017-09-12 09:00:00 16 4 Noroeste 7 Noroeste 0 -- -- 62
2017-09-12 08:00:00 15.9 3 Norte 7 Nordeste 0 -- -- 58
2017-09-12 07:00:00 14.8 4 Este 9 Nordeste 0 -- -- 60
2017-09-12 06:00:00 16.7 5 Nordeste 12 Nordeste 0 -- -- 53
2017-09-12 05:00:00 19.1 3 Norte 20 Noroeste 0 -- -- 50
2017-09-12 04:00:00 19.6 8 Noroeste 13 Noroeste 0 -- -- 49
2017-09-12 03:00:00 21.2 5 Norte 28 Noroeste 0 -- -- 44
2017-09-12 02:00:00 23 14 Noroeste 32 Noroeste 0 -- -- 39
2017-09-12 01:00:00 23.1 9 Noroeste 21 Oeste 0 -- -- 38
2017-09-12 00:00:00 22.3 2 Noroeste 15 Oeste 0 -- -- 43
2017-09-11 23:00:00 25 9 Oeste 28 Noroeste 0 -- -- 38
2017-09-11 22:00:00 26.1 14 Noroeste 29 Noroeste 0 -- -- 36
2017-09-11 21:00:00 27.2 12 Noroeste 30 Noroeste 0 -- -- 33
2017-09-11 20:00:00 29.6 17 Noroeste 36 Noroeste 0 -- -- 29
2017-09-11 19:00:00 31.2 19 Noroeste 35 Noroeste 0 -- -- 25
2017-09-11 18:00:00 32 19 Oeste 47 Noroeste 0 -- -- 24
2017-09-11 17:00:00 31.5 21 Oeste 42 Oeste 0 -- -- 25
2017-09-11 16:00:00 31.4 17 Oeste 41 Oeste 0 -- -- 28
2017-09-11 15:00:00 30.5 23 Oeste 37 Sudoeste 0 -- -- 30
2017-09-11 14:00:00 28.9 21 Oeste 39 Oeste 0 -- -- 35
2017-09-11 13:00:00 27.8 21 Oeste 37 Oeste 0 -- -- 37
2017-09-11 12:00:00 25.3 11 Sudoeste 19 Sudoeste 0 -- -- 40
2017-09-11 11:00:00 21.4 10 Sudoeste 14 Sudoeste 0 -- -- 42
2017-09-11 10:00:00 17.4 6 Oeste 9 Sudoeste 0 -- -- 45
2017-09-11 09:00:00 13.9 0 Calma 4 Sudoeste 0 -- -- 55
2017-09-11 08:00:00 11.1 0 Calma 4 Sudoeste 0 -- -- 60
2017-09-11 07:00:00 11.4 0 Calma 5 Sudoeste 0 -- -- 60
2017-09-11 06:00:00 11.4 0 Calma 5 Sudoeste 0 -- -- 61
2017-09-11 05:00:00 11.2 4 Sudoeste 6 Sudoeste 0 -- -- 59
2017-09-11 04:00:00 12.5 3 Nordeste 4 Noroeste 0 -- -- 54
2017-09-11 03:00:00 13.2 2 Sudoeste 4 Sudoeste 0 -- -- 51
2017-09-11 02:00:00 14.4 0 Calma 9 Sur 0 -- -- 47
2017-09-11 01:00:00 15.7 3 Norte 6 Norte 0 -- -- 43
2017-09-11 00:00:00 16.9 5 Sur 8 Sur 0 -- -- 42
2017-09-10 23:00:00 18.6 4 Noroeste 10 Sudoeste 0 -- -- 37
2017-09-10 22:00:00 20.8 5 Oeste 13 Noroeste 0 -- -- 31
2017-09-10 21:00:00 22 8 Sudoeste 16 Oeste 0 -- -- 30
2017-09-10 20:00:00 24.2 10 Noroeste 21 Oeste 0 -- -- 26
2017-09-10 19:00:00 25.5 12 Sudoeste 21 Oeste 0 -- -- 26
2017-09-10 18:00:00 25.7 7 Noroeste 27 Noroeste 0 -- -- 25
2017-09-10 17:00:00 24.8 6 Sudoeste 22 Sudoeste 0 -- -- 27
2017-09-10 16:00:00 24.1 11 Noroeste 24 Oeste 0 -- -- 28
2017-09-10 15:00:00 23.1 10 Oeste 22 Oeste 0 -- -- 31
2017-09-10 14:00:00 21.6 10 Oeste 25 Oeste 0 -- -- 35
2017-09-10 13:00:00 21.1 9 Noroeste 23 Sudoeste 0 -- -- 36
2017-09-10 12:00:00 20 6 Norte 22 Norte 0 -- -- 37
2017-09-10 11:00:00 18 5 Este 25 Oeste 0 -- -- 46
2017-09-10 10:00:00 14.8 5 Sudoeste 9 Sudoeste 0 -- -- 54
2017-09-10 09:00:00 11.3 2 Sudoeste 9 Sudoeste 0 -- -- 70
2017-09-10 08:00:00 8.8 3 Sudeste 6 Noroeste 0 -- -- 72
2017-09-10 07:00:00 9.9 3 Oeste 10 Oeste 0 -- -- 68
2017-09-10 06:00:00 10.1 3 Norte 6 Norte 0 -- -- 66
2017-09-10 05:00:00 11.5 3 Sudeste 7 Sudeste 0 -- -- 60
2017-09-10 04:00:00 14.1 4 Norte 12 Norte 0 -- -- 53
2017-09-10 03:00:00 14.6 3 Sudoeste 22 Nordeste 0 -- -- 52
2017-09-10 02:00:00 15.4 8 Nordeste 17 Norte 0 -- -- 50
2017-09-10 01:00:00 17.2 13 Nordeste 26 Nordeste 0 -- -- 45
2017-09-10 00:00:00 18.1 20 Norte 34 Norte 0 -- -- 40
2017-09-09 23:00:00 18.6 5 Noroeste 28 Noroeste 0 -- -- 31
2017-09-09 22:00:00 20.2 17 Noroeste 34 Noroeste 0 -- -- 28
2017-09-09 21:00:00 21.1 17 Norte 32 Norte 0 -- -- 28
2017-09-09 20:00:00 22.9 17 Noroeste 37 Noroeste 0 -- -- 26
2017-09-09 19:00:00 24.5 20 Noroeste 41 Noroeste 0 -- -- 25
2017-09-09 18:00:00 25.2 21 Noroeste 37 Oeste 0 -- -- 26
2017-09-09 17:00:00 25.9 21 Noroeste 45 Norte 0 -- -- 29
2017-09-09 16:00:00 24.8 20 Noroeste 41 Noroeste 0 -- -- 35
2017-09-09 15:00:00 23.9 18 Oeste 37 Oeste 0 -- -- 38
2017-09-09 14:00:00 22.4 16 Oeste 35 Oeste 0 -- -- 42
2017-09-09 13:00:00 23 10 Noroeste 24 Oeste 0 -- -- 44
2017-09-09 12:00:00 21.3 9 Noroeste 23 Noroeste 0 -- -- 49
2017-09-09 11:00:00 21.2 14 Noroeste 30 Oeste 0 -- -- 49
2017-09-09 10:00:00 19.8 7 Noroeste 22 Noroeste 0 -- -- 51
2017-09-09 09:00:00 19.5 10 Oeste 26 Oeste 0 -- -- 49
2017-09-09 08:00:00 19.1 11 Noroeste 24 Sudoeste 0 -- -- 49
2017-09-09 07:00:00 14 0 Calma 5 Este 0 -- -- 51
2017-09-09 06:00:00 13.9 0 Calma 4 Sudoeste 0 -- -- 55
2017-09-09 05:00:00 13.2 3 Noroeste 6 Noroeste 0 -- -- 57
2017-09-09 04:00:00 14.1 2 Noroeste 5 Noroeste 0 -- -- 56
2017-09-09 03:00:00 14.4 2 Sudoeste 6 Sudoeste 0 -- -- 51
2017-09-09 02:00:00 14.8 0 Calma 3 Sur 0 -- -- 46
2017-09-09 01:00:00 16 0 Calma 6 Norte 0 -- -- 38
2017-09-09 00:00:00 17.6 0 Calma 4 Sur 0 -- -- 36
2017-09-08 23:00:00 20.1 3 Nordeste 8 Sur 0 -- -- 31
2017-09-08 22:00:00 22 0 Calma 8 Sudeste 0 -- -- 26
2017-09-08 21:00:00 25.8 3 Oeste 12 Sudoeste 0 -- -- 26
2017-09-08 20:00:00 30 11 Oeste 24 Sudoeste 0 -- -- 19
2017-09-08 19:00:00 31.7 15 Oeste 30 Sudoeste 0 -- -- 17
2017-09-08 18:00:00 32.1 14 Oeste 28 Oeste 0 -- -- 18
2017-09-08 17:00:00 31.9 11 Oeste 28 Sudoeste 0 -- -- 20
2017-09-08 16:00:00 31.6 17 Sudoeste 29 Oeste 0 -- -- 21
2017-09-08 15:00:00 30.8 15 Sudoeste 23 Sur 0 -- -- 23
2017-09-08 14:00:00 28.9 6 Sudoeste 17 Oeste 0 -- -- 30
2017-09-08 13:00:00 26.8 6 Oeste 14 Sudoeste 0 -- -- 38
2017-09-08 12:00:00 25.1 3 Sudeste 7 Sur 0 -- -- 38
2017-09-08 11:00:00 21.6 3 Noroeste 14 Este 0 -- -- 36
2017-09-08 10:00:00 17.7 2 Nordeste 9 Nordeste 0 -- -- 45
2017-09-08 09:00:00 14.5 6 Este 11 Este 0 -- -- 51
2017-09-08 08:00:00 13.1 4 Este 9 Nordeste 0 -- -- 53
2017-09-08 07:00:00 13.4 3 Nordeste 9 Nordeste 0 -- -- 51
2017-09-08 06:00:00 14.1 4 Nordeste 8 Norte 0 -- -- 48
2017-09-08 05:00:00 14.4 4 Nordeste 7 Este 0 -- -- 47
2017-09-08 04:00:00 14.1 3 Sur 6 Este 0 -- -- 48
2017-09-08 03:00:00 14.8 2 Norte 6 Noroeste 0 -- -- 47
2017-09-08 02:00:00 16.2 3 Este 6 Sur 0 -- -- 41
2017-09-08 01:00:00 17.8 3 Sudeste 8 Nordeste 0 -- -- 39
2017-09-08 00:00:00 19.9 2 Este 9 Este 0 -- -- 35
2017-09-07 23:00:00 23.3 6 Nordeste 23 Norte 0 -- -- 27
2017-09-07 22:00:00 26 13 Nordeste 27 Norte 0 -- -- 23
2017-09-07 21:00:00 26.7 14 Norte 25 Norte 0 -- -- 24
2017-09-07 20:00:00 30.2 4 Norte 12 Nordeste 0 -- -- 21
2017-09-07 19:00:00 31.8 5 Norte 23 Norte 0 -- -- 17
2017-09-07 18:00:00 32.5 10 Norte 22 Norte 0 -- -- 15
2017-09-07 17:00:00 32 13 Nordeste 25 Noroeste 0 -- -- 14
2017-09-07 16:00:00 31.8 9 Norte 24 Norte 0 -- -- 15
2017-09-07 15:00:00 30.7 13 Nordeste 24 Norte 0 -- -- 20
2017-09-07 14:00:00 29.1 13 Nordeste 24 Noroeste 0 -- -- 25
2017-09-07 13:00:00 28.7 10 Norte 24 Norte 0 -- -- 29
2017-09-07 12:00:00 27.1 11 Norte 20 Noroeste 0 -- -- 28
2017-09-07 11:00:00 24.2 7 Norte 15 Norte 0 -- -- 32
2017-09-07 10:00:00 21.1 8 Norte 14 Norte 0 -- -- 39
2017-09-07 09:00:00 18.9 8 Norte 16 Norte 0 -- -- 47
2017-09-07 08:00:00 18.2 6 Nordeste 18 Nordeste 0 -- -- 55
2017-09-07 07:00:00 18.7 7 Norte 19 Nordeste 0 -- -- 60
2017-09-07 06:00:00 19.3 6 Nordeste 17 Norte 0 -- -- 60
2017-09-07 05:00:00 19.9 8 Nordeste 16 Nordeste 0 -- -- 59
2017-09-07 04:00:00 20.7 9 Nordeste 18 Norte 0 -- -- 57
2017-09-07 03:00:00 21.6 9 Nordeste 23 Norte 0 -- -- 55
2017-09-07 02:00:00 22.5 14 Nordeste 26 Norte 0 -- -- 53
2017-09-07 01:00:00 24 12 Nordeste 19 Nordeste 0 -- -- 50
2017-09-07 00:00:00 25.8 5 Nordeste 13 Nordeste 0 -- -- 45
2017-09-06 23:00:00 27.4 7 Nordeste 26 Nordeste 0 -- -- 42
2017-09-06 22:00:00 29.2 16 Norte 28 Norte 0 -- -- 37
2017-09-06 21:00:00 29.8 4 Nordeste 6 Nordeste 0 -- -- 36
2017-09-06 20:00:00 32.5 4 Nordeste 15 Oeste 0 -- -- 30
2017-09-06 19:00:00 33.5 9 Sudoeste 22 Oeste 0 -- -- 28
2017-09-06 18:00:00 34.1 8 Oeste 23 Noroeste 0 -- -- 28
2017-09-06 17:00:00 34.3 8 Sudoeste 32 Sudoeste 0 -- -- 29
2017-09-06 16:00:00 34 7 Sudoeste 15 Sur 0 -- -- 30
2017-09-06 15:00:00 33 7 Sur 15 Sur 0 -- -- 32
2017-09-06 14:00:00 31.6 6 Nordeste 17 Este 0 -- -- 35
2017-09-06 13:00:00 30.1 5 Norte 13 Nordeste 0 -- -- 39
2017-09-06 12:00:00 28 4 Este 14 Nordeste 0 -- -- 43
2017-09-06 11:00:00 25.8 5 Noroeste 12 Norte 0 -- -- 49
2017-09-06 10:00:00 23.7 4 Nordeste 10 Este 0 -- -- 53
2017-09-06 09:00:00 21.4 5 Este 10 Este 0 -- -- 60
2017-09-06 08:00:00 18.9 5 Este 10 Nordeste 0 -- -- 66
2017-09-06 07:00:00 19.2 5 Nordeste 13 Nordeste 0 -- -- 64
2017-09-06 06:00:00 18.5 5 Este 6 Este 0 -- -- 68
2017-09-06 05:00:00 19.8 6 Este 9 Este 0 -- -- 64
2017-09-06 04:00:00 19.9 0 Calma 13 Nordeste 0 -- -- 61
2017-09-06 03:00:00 20 3 Sudoeste 12 Nordeste 0 -- -- 63
2017-09-06 02:00:00 20.2 3 Este 8 Este 0 -- -- 57
2017-09-06 01:00:00 21.1 3 Nordeste 5 Nordeste 0 -- -- 54
2017-09-06 00:00:00 22.3 0 Calma 3 Nordeste 0 -- -- 54
2017-09-05 23:00:00 24.2 3 Nordeste 6 Este 0 -- -- 50
2017-09-05 22:00:00 26.2 2 Noroeste 5 Oeste 0 -- -- 44
2017-09-05 21:00:00 29.7 2 Oeste 5 Oeste 0 -- -- 38
2017-09-05 20:00:00 32.3 4 Sudoeste 14 Sudoeste 0 -- -- 32
2017-09-05 19:00:00 32.7 9 Oeste 14 Oeste 0 -- -- 32
2017-09-05 18:00:00 33.1 6 Sur 16 Oeste 0 -- -- 31
2017-09-05 17:00:00 32.9 8 Sudoeste 17 Sudoeste 0 -- -- 32
2017-09-05 16:00:00 31.8 10 Oeste 18 Sudoeste 0 -- -- 35
2017-09-05 15:00:00 31 8 Oeste 19 Oeste 0 -- -- 34
2017-09-05 14:00:00 30 9 Oeste 17 Oeste 0 -- -- 40
2017-09-05 13:00:00 28.7 7 Sur 17 Sudeste 0 -- -- 44
2017-09-05 12:00:00 26.5 4 Nordeste 12 Este 0 -- -- 51
2017-09-05 11:00:00 25 5 Nordeste 12 Nordeste 0 -- -- 56
2017-09-05 10:00:00 21.8 4 Este 12 Este 0 -- -- 60
2017-09-05 09:00:00 19.5 3 Este 8 Este 0 -- -- 64
2017-09-05 08:00:00 17.2 6 Este 9 Nordeste 0 -- -- 70
2017-09-05 07:00:00 17.7 6 Nordeste 10 Nordeste 0 -- -- 68
2017-09-05 06:00:00 18 4 Nordeste 9 Este 0 -- -- 66
2017-09-05 05:00:00 17.8 5 Nordeste 8 Este 0 -- -- 67
2017-09-05 04:00:00 18.3 3 Nordeste 9 Oeste 0 -- -- 61
2017-09-05 03:00:00 19.2 0 Calma 11 Este 0 -- -- 56
2017-09-05 02:00:00 18.7 0 Calma 6 Norte 0 -- -- 55
2017-09-05 01:00:00 19.9 2 Nordeste 7 Nordeste 0 -- -- 52
2017-09-05 00:00:00 22 2 Nordeste 9 Nordeste 0 -- -- 46
2017-09-04 23:00:00 24 5 Este 10 Este 0 -- -- 42
2017-09-04 22:00:00 25.6 4 Nordeste 9 Nordeste 0 -- -- 39
2017-09-04 21:00:00 27.2 6 Norte 13 Nordeste 0 -- -- 37
2017-09-04 20:00:00 30.3 8 Norte 17 Noroeste 0 -- -- 32
2017-09-04 19:00:00 31.5 7 Oeste 19 Noroeste 0 -- -- 29
2017-09-04 18:00:00 31.8 9 Norte 20 Noroeste 0 -- -- 29
2017-09-04 17:00:00 31.5 14 Noroeste 25 Noroeste 0 -- -- 30
2017-09-04 16:00:00 30 7 Noroeste 27 Noroeste 0 -- -- 32
2017-09-04 15:00:00 29.4 8 Norte 19 Norte 0 -- -- 32
2017-09-04 14:00:00 28.4 9 Noroeste 20 Noroeste 0 -- -- 38
2017-09-04 13:00:00 27.3 9 Nordeste 32 Nordeste 0 -- -- 39
2017-09-04 12:00:00 26.4 8 Norte 18 Noroeste 0 -- -- 42
2017-09-04 11:00:00 24.5 9 Norte 16 Nordeste 0 -- -- 48
2017-09-04 10:00:00 22 4 Nordeste 10 Nordeste 0 -- -- 49
2017-09-04 09:00:00 17.3 3 Nordeste 8 Nordeste 0 -- -- 51
2017-09-04 08:00:00 14.7 3 Nordeste 9 Nordeste 0 -- -- 52
2017-09-04 07:00:00 15.5 6 Nordeste 12 Este 0 -- -- 49
2017-09-04 06:00:00 15.3 3 Nordeste 8 Nordeste 0 -- -- 49
2017-09-04 05:00:00 17.7 4 Sudoeste 6 Sudoeste 0 -- -- 48
2017-09-04 04:00:00 20.6 5 Oeste 14 Oeste 0 -- -- 37
2017-09-04 03:00:00 21.4 5 Noroeste 17 Oeste 0 -- -- 33
2017-09-04 02:00:00 17.3 3 Sudoeste 8 Oeste 0 -- -- 47
2017-09-04 01:00:00 18.7 3 Oeste 8 Sudoeste 0 -- -- 41
2017-09-04 00:00:00 20.7 6 Sudoeste 8 Sudoeste 0 -- -- 31
2017-09-03 23:00:00 23.5 4 Sudeste 12 Oeste 0 -- -- 28
2017-09-03 22:00:00 25.7 9 Oeste 20 Sudoeste 0 -- -- 24
2017-09-03 21:00:00 28.2 12 Sudoeste 28 Sudoeste 0 -- -- 21
2017-09-03 20:00:00 31.3 17 Sudoeste 27 Sudoeste 0 -- -- 19
2017-09-03 19:00:00 32.1 18 Sudoeste 24 Sudoeste 0 -- -- 20
2017-09-03 18:00:00 32.7 15 Oeste 36 Sudoeste 0 -- -- 21
2017-09-03 17:00:00 32.2 17 Sudoeste 33 Sudoeste 0 -- -- 19
2017-09-03 16:00:00 31.9 14 Sudoeste 28 Sudoeste 0 -- -- 20
2017-09-03 15:00:00 31 14 Sudoeste 27 Oeste 0 -- -- 22
2017-09-03 14:00:00 29.7 13 Sudoeste 23 Sur 0 -- -- 23
2017-09-03 13:00:00 27.6 12 Sudoeste 19 Oeste 0 -- -- 26
2017-09-03 12:00:00 24.3 8 Sudoeste 14 Sudoeste 0 -- -- 30
2017-09-03 11:00:00 21.7 3 Sudoeste 8 Sudoeste 0 -- -- 32
2017-09-03 10:00:00 17.8 4 Este 6 Este 0 -- -- 48
2017-09-03 09:00:00 15.3 0 Calma 8 Este 0 -- -- 53
2017-09-03 08:00:00 14.1 0 Calma 4 Nordeste 0 -- -- 58
2017-09-03 07:00:00 13.6 0 Calma 9 Oeste 0 -- -- 54
2017-09-03 06:00:00 13.5 0 Calma 10 Nordeste 0 -- -- 52
2017-09-03 05:00:00 12.8 3 Este 5 Este 0 -- -- 56
2017-09-03 04:00:00 13.7 2 Nordeste 8 Este 0 -- -- 47
2017-09-03 03:00:00 13.2 0 Calma 4 Norte 0 -- -- 51
2017-09-03 02:00:00 14.2 0 Calma 8 Nordeste 0 -- -- 44
2017-09-03 01:00:00 14.9 4 Nordeste 5 Nordeste 0 -- -- 42
2017-09-03 00:00:00 15.7 0 Calma 6 Nordeste 0 -- -- 47
2017-09-02 23:00:00 17.5 3 Nordeste 6 Norte 0 -- -- 37
2017-09-02 22:00:00 20 3 Nordeste 5 Norte 0 -- -- 37
2017-09-02 21:00:00 24.6 0 Calma 5 Sudoeste 0 -- -- 29
2017-09-02 20:00:00 27.7 4 Sudoeste 13 Sudoeste 0 -- -- 20
2017-09-02 19:00:00 29.7 2 Oeste 12 Noroeste 0 -- -- 18
2017-09-02 18:00:00 29.1 4 Este 16 Nordeste 0 -- -- 20
2017-09-02 17:00:00 29.1 5 Nordeste 13 Noroeste 0 -- -- 21
2017-09-02 16:00:00 28.1 5 Noroeste 14 Oeste 0 -- -- 22
2017-09-02 15:00:00 26.7 7 Noroeste 17 Norte 0 -- -- 24
2017-09-02 14:00:00 25.7 6 Norte 21 Norte 0 -- -- 25
2017-09-02 13:00:00 23.7 8 Nordeste 24 Norte 0 -- -- 30
2017-09-02 12:00:00 21.9 12 Nordeste 24 Nordeste 0 -- -- 35
2017-09-02 11:00:00 19.6 14 Nordeste 27 Norte 0 -- -- 41
2017-09-02 10:00:00 17.5 13 Nordeste 24 Norte 0 -- -- 48
2017-09-02 09:00:00 15.2 10 Nordeste 22 Nordeste 0 -- -- 56
2017-09-02 08:00:00 13.6 8 Norte 17 Norte 0 -- -- 61
2017-09-02 07:00:00 13.9 6 Nordeste 12 Nordeste 0 -- -- 60
2017-09-02 06:00:00 14.1 5 Nordeste 12 Nordeste 0 -- -- 59
2017-09-02 05:00:00 15 5 Nordeste 13 Nordeste 0 -- -- 57
2017-09-02 04:00:00 16 9 Nordeste 24 Nordeste 0 -- -- 55
2017-09-02 03:00:00 17 8 Nordeste 26 Nordeste 0 -- -- 54
2017-09-02 02:00:00 17.7 6 Nordeste 24 Nordeste 0 -- -- 52
2017-09-02 01:00:00 19.2 15 Nordeste 39 Norte 0 -- -- 46
2017-09-02 00:00:00 21 22 Norte 38 Norte 0 -- -- 42
2017-09-01 23:00:00 22.2 18 Nordeste 36 Norte 0 -- -- 37
2017-09-01 22:00:00 23.4 23 Norte 37 Nordeste 0 -- -- 36
2017-09-01 21:00:00 25.4 18 Norte 31 Norte 0 -- -- 30
2017-09-01 20:00:00 28 8 Norte 17 Norte 0 -- -- 30
2017-09-01 19:00:00 29.3 9 Nordeste 22 Nordeste 0 -- -- 29
2017-09-01 18:00:00 30.3 8 Norte 24 Norte 0 -- -- 28
2017-09-01 17:00:00 30.4 14 Noroeste 26 Noroeste 0 -- -- 28
2017-09-01 16:00:00 29.5 10 Norte 21 Norte 0 -- -- 33
2017-09-01 15:00:00 28.3 9 Nordeste 18 Este 0 -- -- 39
2017-09-01 14:00:00 27.1 6 Nordeste 21 Norte 0 -- -- 48
2017-09-01 13:00:00 25.4 10 Nordeste 19 Norte 0 -- -- 52
2017-09-01 12:00:00 23.3 11 Norte 20 Norte 0 -- -- 53
2017-09-01 11:00:00 20.7 8 Norte 19 Norte 0 -- -- 58
2017-09-01 10:00:00 19.1 10 Norte 18 Norte 0 -- -- 62
2017-09-01 09:00:00 18.1 9 Nordeste 18 Norte 0 -- -- 65
2017-09-01 08:00:00 17.9 8 Nordeste 22 Nordeste 0 -- -- 65
2017-09-01 07:00:00 17.9 5 Nordeste 18 Nordeste 0 -- -- 66
2017-09-01 06:00:00 17.9 11 Nordeste 22 Norte 0 -- -- 66
2017-09-01 05:00:00 18.4 12 Nordeste 24 Nordeste 0 -- -- 65
2017-09-01 04:00:00 19 9 Nordeste 23 Norte 0 -- -- 63
2017-09-01 03:00:00 19.7 10 Nordeste 26 Nordeste 0 -- -- 61
2017-09-01 02:00:00 20.8 12 Nordeste 26 Norte 0 -- -- 58
2017-09-01 01:00:00 22.2 13 Nordeste 22 Norte 0 -- -- 53
2017-09-01 00:00:00 23.3 8 Nordeste 21 Norte 0 -- -- 50
2017-08-31 23:00:00 24.1 14 Norte 24 Norte 0 -- -- 49
2017-08-31 22:00:00 23.3 4 Nordeste 8 Noroeste 0 -- -- 49
2017-08-31 21:00:00 26.1 2 Sudoeste 12 Sudoeste 0 -- -- 40
2017-08-31 20:00:00 28.5 6 Sudoeste 19 Oeste 0 -- -- 33
2017-08-31 19:00:00 29.6 13 Oeste 20 Sudoeste 0 -- -- 32
2017-08-31 18:00:00 29.9 8 Sudoeste 17 Sudoeste 0 -- -- 33
2017-08-31 17:00:00 29.4 7 Oeste 17 Oeste 0 -- -- 34
2017-08-31 16:00:00 28.9 10 Oeste 21 Oeste 0 -- -- 36
2017-08-31 15:00:00 28.4 8 Noroeste 16 Noroeste 0 -- -- 38
2017-08-31 14:00:00 27.5 6 Noroeste 18 Norte 0 -- -- 41
2017-08-31 13:00:00 26.7 5 Norte 19 Norte 0 -- -- 44
2017-08-31 12:00:00 25 8 Nordeste 19 Este 0 -- -- 48
2017-08-31 11:00:00 23.3 10 Norte 17 Nordeste 0 -- -- 56
2017-08-31 10:00:00 21.2 8 Nordeste 17 Norte 0 -- -- 63
2017-08-31 09:00:00 18.9 5 Nordeste 11 Nordeste 0 -- -- 71
2017-08-31 08:00:00 17 2 Nordeste 5 Nordeste 0 -- -- 77
2017-08-31 07:00:00 16.9 0 Calma 6 Este 0 -- -- 77
2017-08-31 06:00:00 16.9 3 Nordeste 5 Nordeste 0 -- -- 77
2017-08-31 05:00:00 16.8 3 Norte 8 Sudeste 0 -- -- 75
2017-08-31 04:00:00 17.8 4 Sudeste 13 Este 0 -- -- 72
2017-08-31 03:00:00 17.5 3 Norte 8 Noroeste 0 -- -- 70
2017-08-31 02:00:00 17.2 2 Noroeste 5 Sur 0 -- -- 68
2017-08-31 01:00:00 17.7 2 Nordeste 6 Noroeste 0 -- -- 67
2017-08-31 00:00:00 19.1 0 Calma 4 Sudoeste 0 -- -- 60
2017-08-30 23:00:00 20.2 0 Calma 4 Sur 0 -- -- 53
2017-08-30 22:00:00 21.7 4 Sur 9 Sur 0 -- -- 49
2017-08-30 21:00:00 23.5 6 Sudoeste 23 Sudoeste 0 -- -- 43
2017-08-30 20:00:00 25.7 17 Sudoeste 30 Sudoeste 0 -- -- 40
2017-08-30 19:00:00 26.8 19 Sudoeste 30 Sudoeste 0 -- -- 36
2017-08-30 18:00:00 27.5 18 Sudoeste 29 Oeste 0 -- -- 34
2017-08-30 17:00:00 27 14 Sudoeste 27 Oeste 0 -- -- 37
2017-08-30 16:00:00 27.3 16 Sur 26 Sudoeste 0 -- -- 36
2017-08-30 15:00:00 26.1 12 Sudoeste 27 Sudoeste 0 -- -- 42
2017-08-30 14:00:00 25.2 14 Sudoeste 24 Oeste 0 -- -- 47
2017-08-30 13:00:00 23.9 13 Sudoeste 22 Sur 0 -- -- 57
2017-08-30 12:00:00 21.9 9 Sur 16 Sudoeste 0 -- -- 64
2017-08-30 11:00:00 20.7 4 Sudoeste 10 Sudoeste 0 -- -- 70
2017-08-30 10:00:00 18.5 3 Oeste 8 Sudoeste 0 -- -- 80
2017-08-30 09:00:00 17.2 2 Nordeste 6 Nordeste 0 -- -- 83
2017-08-30 08:00:00 17 4 Nordeste 7 Nordeste 0 -- -- 82
2017-08-30 07:00:00 16.6 3 Este 5 Nordeste 0 -- -- 83
2017-08-30 06:00:00 17.2 0 Calma 5 Sur 0 -- -- 83
2017-08-30 05:00:00 17.4 0 Calma 8 Nordeste 0 -- -- 80
2017-08-30 04:00:00 17.5 4 Nordeste 9 Nordeste 0 -- -- 78
2017-08-30 03:00:00 17.9 3 Norte 5 Norte 0 -- -- 81
2017-08-30 02:00:00 18.2 0 Calma 13 Sudeste 0 -- -- 81
2017-08-30 01:00:00 18.2 9 Sudeste 15 Sudeste 0 -- -- 81
2017-08-30 00:00:00 18.5 8 Sudeste 14 Sudeste 0 -- -- 79
2017-08-29 23:00:00 19 3 Noroeste 12 Sudoeste 0 -- -- 73
2017-08-29 22:00:00 20.2 5 Nordeste 10 Norte 0 -- -- 69
2017-08-29 21:00:00 21.8 0 Calma 11 Sudoeste 0 -- -- 64
2017-08-29 20:00:00 23.6 9 Oeste 17 Oeste 0 -- -- 53
2017-08-29 19:00:00 25 8 Sudoeste 17 Sur 0 -- -- 44
2017-08-29 18:00:00 23.3 12 Sudoeste 27 Oeste 0 -- -- 60
2017-08-29 17:00:00 25.5 11 Sudoeste 21 Oeste 0 -- -- 53
2017-08-29 16:00:00 25 9 Oeste 14 Oeste 0 -- -- 52
2017-08-29 15:00:00 25.1 7 Sudoeste 12 Oeste 0 -- -- 54
2017-08-29 14:00:00 23.7 6 Noroeste 15 Nordeste 0 -- -- 63
2017-08-29 13:00:00 23.6 2 Noroeste 11 Nordeste 0 -- -- 66
2017-08-29 12:00:00 22.2 8 Nordeste 13 Este 0.2 -- -- 69
2017-08-29 11:00:00 20.4 2 Noroeste 14 Norte 0 -- -- 79
2017-08-29 10:00:00 19 7 Norte 12 Norte 0 -- -- 86
2017-08-29 09:00:00 16.9 5 Nordeste 9 Nordeste 0 -- -- 92
2017-08-29 08:00:00 15.4 6 Nordeste 10 Este 0 -- -- 94
2017-08-29 07:00:00 15.8 4 Este 10 Nordeste 0 -- -- 93
2017-08-29 06:00:00 16.3 4 Nordeste 9 Este 0 -- -- 93
2017-08-29 05:00:00 16.4 3 Nordeste 5 Este 0 -- -- 92
2017-08-29 04:00:00 16.5 3 Nordeste 8 Nordeste 0 -- -- 92
2017-08-29 03:00:00 16.8 0 Calma 10 Sudoeste 0 -- -- 90
2017-08-29 02:00:00 17.6 4 Sudeste 17 Este 0.6 -- -- 88
2017-08-29 01:00:00 18.4 9 Nordeste 15 Nordeste 3.2 -- -- 87
2017-08-29 00:00:00 18 4 Este 9 Nordeste 0 -- -- 82
2017-08-28 23:00:00 18 6 Nordeste 10 Nordeste 0 -- -- 80
2017-08-28 22:00:00 18.3 5 Nordeste 10 Nordeste 0 -- -- 79
2017-08-28 21:00:00 19.1 5 Este 12 Nordeste 0 -- -- 79
2017-08-28 20:00:00 19.5 4 Sur 12 Sudeste 0.2 -- -- 79
2017-08-28 19:00:00 20.1 7 Sudeste 13 Este 0 -- -- 77
2017-08-28 18:00:00 21.4 3 Sudeste 9 Nordeste 0.6 -- -- 80
2017-08-28 17:00:00 21.9 3 Nordeste 12 Nordeste 0 -- -- 76
2017-08-28 16:00:00 21.7 3 Norte 24 Noroeste 0.8 -- -- 80
2017-08-28 15:00:00 20.9 19 Oeste 54 Sudoeste 0 -- -- 79
2017-08-28 14:00:00 24.3 5 Noroeste 10 Nordeste 0 -- -- 66
2017-08-28 13:00:00 23.3 5 Norte 16 Nordeste 0 -- -- 70
2017-08-28 12:00:00 23.4 3 Noroeste 50 Sudoeste 0 -- -- 71
2017-08-28 11:00:00 25 6 Nordeste 12 Norte 0.2 -- -- 60
2017-08-28 10:00:00 23.8 5 Nordeste 8 Nordeste 0 -- -- 64
2017-08-28 09:00:00 21.4 0 Calma 5 Norte 0 -- -- 74
2017-08-28 08:00:00 20.7 2 Norte 8 Este 0 -- -- 72
2017-08-28 07:00:00 20.9 4 Sudoeste 12 Sudoeste 0.2 -- -- 69
2017-08-28 06:00:00 21.6 3 Sudoeste 14 Sur 0 -- -- 66
2017-08-28 05:00:00 21.5 2 Norte 8 Nordeste 0 -- -- 59
2017-08-28 04:00:00 21.4 4 Sudoeste 13 Sudeste 0 -- -- 58
2017-08-28 03:00:00 21 3 Norte 10 Este 0 -- -- 59
2017-08-28 02:00:00 21.5 4 Este 10 Este 0 -- -- 59
2017-08-28 01:00:00 22.8 4 Nordeste 9 Norte 0 -- -- 55
2017-08-28 00:00:00 22.9 2 Nordeste 14 Este 0 -- -- 55
2017-08-27 23:00:00 23.2 5 Norte 15 Este 0 -- -- 54
2017-08-27 22:00:00 24.2 7 Nordeste 26 Este 0 -- -- 52
2017-08-27 21:00:00 25 15 Este 31 Sudeste 0 -- -- 52
2017-08-27 20:00:00 26.7 19 Sudeste 31 Sudeste 0 -- -- 44
2017-08-27 19:00:00 27.8 23 Sudeste 38 Sudeste 0 -- -- 44
2017-08-27 18:00:00 27.8 23 Sudeste 41 Sudeste 0 -- -- 44
2017-08-27 17:00:00 28.4 24 Sudeste 42 Sudeste 0 -- -- 42
2017-08-27 16:00:00 26.9 16 Sudeste 29 Sudeste 0 -- -- 50
2017-08-27 15:00:00 25 12 Este 21 Este 0.2 -- -- 60
2017-08-27 14:00:00 24.6 4 Sudoeste 14 Oeste 0 -- -- 59
2017-08-27 13:00:00 23.8 12 Oeste 51 Oeste 0 -- -- 64
2017-08-27 12:00:00 27.1 12 Sur 23 Sudeste 0 -- -- 48
2017-08-27 11:00:00 27.1 12 Este 19 Sudeste 0 -- -- 49
2017-08-27 10:00:00 25.7 8 Nordeste 12 Nordeste 0 -- -- 51
2017-08-27 09:00:00 23.7 6 Este 14 Nordeste 0 -- -- 56
2017-08-27 08:00:00 22.7 10 Nordeste 16 Nordeste 0 -- -- 63
2017-08-27 07:00:00 23.9 5 Sur 12 Sudoeste 0 -- -- 60
2017-08-27 06:00:00 24.9 5 Sudoeste 11 Sudeste 0 -- -- 50
2017-08-27 05:00:00 25.3 5 Sudoeste 23 Sudeste 0 -- -- 49
2017-08-27 04:00:00 26 9 Este 34 Sudeste 0 -- -- 49
2017-08-27 03:00:00 26.4 24 Sudeste 47 Sudeste 0 -- -- 47
2017-08-27 02:00:00 27.3 26 Sudeste 44 Sudeste 0 -- -- 34
2017-08-27 01:00:00 28.3 21 Este 45 Este 0 -- -- 28
2017-08-27 00:00:00 28.3 27 Este 46 Este 0 -- -- 28
2017-08-26 23:00:00 29 26 Sudeste 49 Sudeste 0 -- -- 29
2017-08-26 22:00:00 27.5 4 Sudoeste 13 Sudoeste 0 -- -- 33
2017-08-26 21:00:00 28.8 5 Este 9 Este 0 -- -- 28
2017-08-26 20:00:00 30.3 3 Noroeste 10 Noroeste 0 -- -- 25
2017-08-26 19:00:00 31.1 9 Oeste 18 Oeste 0 -- -- 24
2017-08-26 18:00:00 31.8 7 Noroeste 19 Sudoeste 0 -- -- 22
2017-08-26 17:00:00 32.2 12 Oeste 24 Oeste 0 -- -- 22
2017-08-26 16:00:00 32 12 Oeste 23 Oeste 0 -- -- 23
2017-08-26 15:00:00 31.4 9 Oeste 19 Oeste 0 -- -- 26
2017-08-26 14:00:00 31.9 4 Noroeste 21 Sudoeste 0 -- -- 28
2017-08-26 13:00:00 31 12 Sudoeste 21 Oeste 0 -- -- 32
2017-08-26 12:00:00 30.9 5 Sudeste 13 Sudeste 0 -- -- 33
2017-08-26 11:00:00 27.9 3 Nordeste 9 Este 0 -- -- 41
2017-08-26 10:00:00 23.4 0 Calma 5 Este 0 -- -- 48
2017-08-26 09:00:00 19.3 5 Este 7 Este 0 -- -- 54
2017-08-26 08:00:00 16.7 0 Calma 4 Nordeste 0 -- -- 62
2017-08-26 07:00:00 17.3 2 Nordeste 5 Nordeste 0 -- -- 60
2017-08-26 06:00:00 17.6 0 Calma 5 Este 0 -- -- 59
2017-08-26 05:00:00 18.3 0 Calma 2 Sur 0 -- -- 58
2017-08-26 04:00:00 18.7 3 Noroeste 6 Sudeste 0 -- -- 55
2017-08-26 03:00:00 19.6 0 Calma 5 Oeste 0 -- -- 52
2017-08-26 02:00:00 21.1 0 Calma 4 Sudoeste 0 -- -- 42
2017-08-26 01:00:00 22.4 3 Este 8 Oeste 0 -- -- 36
2017-08-26 00:00:00 24.1 6 Sudeste 12 Sudeste 0 -- -- 31
2017-08-25 23:00:00 25.9 2 Este 9 Sudoeste 0 -- -- 29
2017-08-25 22:00:00 28.9 7 Sur 22 Oeste 0 -- -- 24
2017-08-25 21:00:00 31.4 14 Oeste 31 Sudoeste 0 -- -- 21
2017-08-25 20:00:00 34 18 Sudoeste 34 Sudoeste 0 -- -- 20
2017-08-25 19:00:00 35.6 23 Sudoeste 33 Sudoeste 0 -- -- 18
2017-08-25 18:00:00 35.1 13 Sudoeste 28 Sudoeste 0 -- -- 19
2017-08-25 17:00:00 35.4 13 Sudoeste 28 Sudoeste 0 -- -- 19
2017-08-25 16:00:00 35 21 Oeste 33 Sudoeste 0 -- -- 19
2017-08-25 15:00:00 34 12 Sur 26 Sudoeste 0 -- -- 21
2017-08-25 14:00:00 33.4 16 Sur 28 Sur 0 -- -- 20
2017-08-25 13:00:00 31.3 13 Sudoeste 21 Sudoeste 0 -- -- 26
2017-08-25 12:00:00 28.6 7 Oeste 14 Sudoeste 0 -- -- 36
2017-08-25 11:00:00 26.9 2 Sudeste 6 Este 0 -- -- 32
2017-08-25 10:00:00 23.6 3 Este 6 Este 0 -- -- 33
2017-08-25 09:00:00 18.7 3 Nordeste 5 Este 0 -- -- 50
2017-08-25 08:00:00 17.7 4 Este 6 Nordeste 0 -- -- 50
2017-08-25 07:00:00 17.1 2 Noroeste 5 Noroeste 0 -- -- 53
2017-08-25 06:00:00 17.4 0 Calma 4 Norte 0 -- -- 51
2017-08-25 05:00:00 17.5 0 Calma 6 Oeste 0 -- -- 52
2017-08-25 04:00:00 17.7 3 Noroeste 5 Oeste 0 -- -- 52
2017-08-25 03:00:00 18.4 0 Calma 3 Oeste 0 -- -- 48
2017-08-25 02:00:00 19.6 0 Calma 4 Sur 0 -- -- 45
2017-08-25 01:00:00 21 0 Calma 3 Norte 0 -- -- 39
2017-08-25 00:00:00 22.8 3 Este 3 Nordeste 0 -- -- 35
2017-08-24 23:00:00 25.5 0 Calma 8 Sur 0 -- -- 31
2017-08-24 22:00:00 27.8 4 Sur 16 Oeste 0 -- -- 28
2017-08-24 21:00:00 30.9 9 Oeste 23 Oeste 0 -- -- 23
2017-08-24 20:00:00 33.7 17 Oeste 32 Sudoeste 0 -- -- 21
2017-08-24 19:00:00 35.7 22 Sudoeste 39 Sudoeste 0 -- -- 16
2017-08-24 18:00:00 36.7 22 Sudoeste 39 Oeste 0 -- -- 19
2017-08-24 17:00:00 37.2 17 Sur 36 Sudoeste 0 -- -- 20
2017-08-24 16:00:00 36.4 17 Sudoeste 33 Oeste 0 -- -- 22
2017-08-24 15:00:00 35.2 20 Sudoeste 37 Oeste 0 -- -- 22
2017-08-24 14:00:00 34.1 21 Sudoeste 30 Oeste 0 -- -- 25
2017-08-24 13:00:00 32.6 6 Sur 16 Oeste 0 -- -- 31
2017-08-24 12:00:00 29.6 6 Oeste 13 Sudoeste 0 -- -- 34
2017-08-24 11:00:00 27.7 5 Oeste 10 Oeste 0 -- -- 38
2017-08-24 10:00:00 24.9 0 Calma 6 Nordeste 0 -- -- 46
2017-08-24 09:00:00 20.6 0 Calma 4 Nordeste 0 -- -- 56
2017-08-24 08:00:00 18 0 Calma 4 Este 0 -- -- 63
2017-08-24 07:00:00 17.6 3 Nordeste 5 Nordeste 0 -- -- 62
2017-08-24 06:00:00 18 4 Este 6 Nordeste 0 -- -- 61
2017-08-24 05:00:00 18.5 0 Calma 5 Noroeste 0 -- -- 63
2017-08-24 04:00:00 19.3 4 Sudoeste 10 Nordeste 0 -- -- 58
2017-08-24 03:00:00 20 3 Nordeste 7 Noroeste 0 -- -- 52
2017-08-24 02:00:00 21.2 2 Norte 8 Este 0 -- -- 50
2017-08-24 01:00:00 22.4 0 Calma 4 Sudoeste 0 -- -- 47
2017-08-24 00:00:00 24.1 0 Calma 4 Noroeste 0 -- -- 42
2017-08-23 23:00:00 26.4 0 Calma 6 Sudeste 0 -- -- 35
2017-08-23 22:00:00 29.4 6 Sudeste 8 Oeste 0 -- -- 29
2017-08-23 21:00:00 32.7 6 Sudoeste 21 Sudoeste 0 -- -- 26
2017-08-23 20:00:00 35.6 13 Oeste 23 Oeste 0 -- -- 23
2017-08-23 19:00:00 35.4 13 Oeste 29 Sudoeste 0 -- -- 25
2017-08-23 18:00:00 36.9 10 Oeste 32 Sudoeste 0 -- -- 20
2017-08-23 17:00:00 37.6 17 Sudoeste 33 Oeste 0 -- -- 20
2017-08-23 16:00:00 36.6 10 Oeste 29 Sudoeste 0 -- -- 23
2017-08-23 15:00:00 35.8 14 Oeste 23 Oeste 0 -- -- 25
2017-08-23 14:00:00 33.9 3 Noroeste 15 Sudoeste 0 -- -- 29
2017-08-23 13:00:00 31.9 7 Oeste 14 Oeste 0 -- -- 34
2017-08-23 12:00:00 30.3 7 Sudoeste 15 Sudoeste 0 -- -- 36
2017-08-23 11:00:00 29.4 4 Sudoeste 10 Sudeste 0 -- -- 39
2017-08-23 10:00:00 26.9 3 Noroeste 8 Nordeste 0 -- -- 45
2017-08-23 09:00:00 23.6 4 Nordeste 9 Nordeste 0 -- -- 54
2017-08-23 08:00:00 21.8 4 Nordeste 8 Nordeste 0 -- -- 57
2017-08-23 07:00:00 21 4 Nordeste 8 Nordeste 0 -- -- 57
2017-08-23 06:00:00 23.4 0 Calma 18 Sudeste 0 -- -- 51
2017-08-23 05:00:00 24.4 10 Sudeste 20 Sudeste 0 -- -- 47
2017-08-23 04:00:00 24.2 3 Este 9 Nordeste 0 -- -- 47
2017-08-23 03:00:00 24.5 5 Nordeste 7 Este 0 -- -- 49
2017-08-23 02:00:00 24.2 0 Calma 5 Noroeste 0 -- -- 51
2017-08-23 01:00:00 24.9 0 Calma 2 Sudeste 0 -- -- 50
2017-08-23 00:00:00 26 0 Calma 5 Norte 0 -- -- 44
2017-08-22 23:00:00 27.5 2 Este 6 Sudeste 0 -- -- 44
2017-08-22 22:00:00 30.2 0 Calma -- -- 0 -- -- 36
2017-08-22 21:00:00 33.7 0 Calma 9 Sudoeste 0 -- -- 33
2017-08-22 20:00:00 35.5 8 Sudoeste 17 Sudoeste 0 -- -- 26
2017-08-22 19:00:00 37.2 8 Sudoeste 20 Sudoeste 0 -- -- 23
2017-08-22 18:00:00 37.4 8 Oeste 23 Sudoeste 0 -- -- 26
2017-08-22 17:00:00 37.5 13 Sudoeste 25 Sudoeste 0 -- -- 22
2017-08-22 16:00:00 36.9 7 Sur 19 Sudoeste 0 -- -- 29
2017-08-22 15:00:00 35.1 6 Oeste 17 Sudoeste 0 -- -- 32
2017-08-22 14:00:00 34.1 8 Oeste 16 Sudoeste 0 -- -- 37
2017-08-22 13:00:00 32.5 4 Sur 15 Este 0 -- -- 40
2017-08-22 12:00:00 30.5 6 Sudeste 14 Sudeste 0 -- -- 43
2017-08-22 11:00:00 28.6 6 Sudeste 11 Sudeste 0 -- -- 48
2017-08-22 10:00:00 26.4 5 Nordeste 16 Nordeste 0 -- -- 56
2017-08-22 09:00:00 24.2 7 Nordeste 14 Nordeste 0 -- -- 62
2017-08-22 08:00:00 22.6 4 Nordeste 9 Este 0 -- -- 66
2017-08-22 07:00:00 22.7 4 Nordeste 9 Este 0 -- -- 65
2017-08-22 06:00:00 23.5 5 Nordeste 21 Este 0 -- -- 63
2017-08-22 05:00:00 24.5 8 Nordeste 20 Este 0 -- -- 60
2017-08-22 04:00:00 25.8 6 Nordeste 17 Este 0 -- -- 55
2017-08-22 03:00:00 26.5 11 Sudeste 33 Sur 0 -- -- 53
2017-08-22 02:00:00 27.4 7 Oeste 25 Sudoeste 0 -- -- 51
2017-08-22 01:00:00 28.3 5 Sur 21 Sudeste 0 -- -- 47
2017-08-22 00:00:00 29.5 3 Oeste 19 Sudeste 0 -- -- 38